Time;durP1;ratioP1;P1;durP2;ratioP2;P2;SDS_P1;SDS_P2;PMS_P1;PMS_P2;Temp;Humidity;BMP_temperature;BMP_pressure;BME280_temperature;BME280_humidity;BME280_pressure;Samples;Min_cycle;Max_cycle;Signal;HPM_P1;HPM_P2
2023/07/03 00:00:47;;;;;;;20.25;10.90;;;17.50;53.00;;;;;;5034311;28;20314;-60
2023/07/03 00:03:13;;;;;;;20.88;11.07;;;17.50;53.20;;;;;;5039498;28;20024;-60
2023/07/03 00:05:47;;;;;;;26.42;11.82;;;17.50;53.40;;;;;;5036808;28;20021;-60
2023/07/03 00:08:14;;;;;;;22.25;11.05;;;17.50;54.10;;;;;;5039294;28;20171;-61
2023/07/03 00:10:41;;;;;;;20.08;10.63;;;17.40;53.60;;;;;;5045102;28;20029;-60
2023/07/03 00:13:07;;;;;;;18.60;10.13;;;17.40;53.70;;;;;;5045982;28;20384;-60
2023/07/03 00:15:33;;;;;;;19.63;10.93;;;17.40;53.70;;;;;;5037433;28;20049;-61
2023/07/03 00:17:58;;;;;;;20.00;10.95;;;17.40;53.80;;;;;;5037076;28;20028;-61
2023/07/03 00:20:24;;;;;;;20.80;11.25;;;17.40;53.80;;;;;;5043119;28;20022;-61
2023/07/03 00:22:52;;;;;;;22.08;11.63;;;17.40;53.80;;;;;;5028669;28;20081;-61
2023/07/03 00:25:18;;;;;;;19.45;10.60;;;17.30;53.80;;;;;;5038886;28;20603;-60
2023/07/03 00:27:44;;;;;;;21.42;10.35;;;17.30;53.70;;;;;;5031103;28;20029;-60
2023/07/03 00:30:10;;;;;;;19.52;10.00;;;17.20;53.80;;;;;;5040457;28;20036;-59
2023/07/03 00:32:36;;;;;;;24.88;11.00;;;17.20;54.00;;;;;;5039718;28;20040;-61
2023/07/03 00:35:03;;;;;;;25.52;10.85;;;17.10;54.10;;;;;;5039474;28;20042;-60
2023/07/03 00:37:29;;;;;;;19.58;10.82;;;17.10;54.90;;;;;;5034487;28;20026;-60
2023/07/03 00:39:55;;;;;;;18.02;10.68;;;17.00;54.40;;;;;;5040088;28;20057;-61
2023/07/03 00:42:25;;;;;;;20.00;11.43;;;17.00;54.50;;;;;;5036736;28;20392;-60
2023/07/03 00:44:51;;;;;;;17.77;10.38;;;17.00;54.80;;;;;;5035557;28;20064;-61
2023/07/03 00:47:16;;;;;;;19.20;11.38;;;16.90;54.50;;;;;;5039491;28;20021;-60
2023/07/03 00:49:42;;;;;;;19.02;11.20;;;16.90;54.80;;;;;;5041797;28;20075;-62
2023/07/03 00:52:10;;;;;;;19.73;11.63;;;16.80;54.90;;;;;;5020683;28;20037;-62
2023/07/03 00:54:36;;;;;;;20.45;11.23;;;16.80;55.00;;;;;;5034447;28;20091;-60
2023/07/03 00:57:03;;;;;;;22.98;11.85;;;16.80;55.00;;;;;;5037043;28;20093;-59
2023/07/03 00:59:28;;;;;;;18.45;11.05;;;16.80;55.10;;;;;;5039498;28;20034;-60
2023/07/03 01:02:13;;;;;;;23.15;11.20;;;16.70;55.10;;;;;;5035345;28;20101;-60
2023/07/03 01:05:05;;;;;;;21.02;10.88;;;16.70;56.30;;;;;;5039635;28;20033;-59
2023/07/03 01:07:34;;;;;;;19.00;10.63;;;16.70;56.10;;;;;;5038940;28;20461;-60
2023/07/03 01:10:10;;;;;;;19.45;10.98;;;16.70;55.30;;;;;;5039665;28;20079;-60
2023/07/03 01:12:41;;;;;;;18.63;10.73;;;16.70;56.10;;;;;;5035971;28;20036;-61
2023/07/03 01:15:10;;;;;;;16.67;10.35;;;16.70;55.80;;;;;;5036812;28;20033;-60
2023/07/03 01:17:40;;;;;;;20.48;10.77;;;16.70;56.00;;;;;;5022794;28;20041;-62
2023/07/03 01:20:12;;;;;;;19.42;11.20;;;16.70;56.10;;;;;;5035423;28;20104;-60
2023/07/03 01:22:49;;;;;;;21.73;10.85;;;16.70;56.20;;;;;;5038391;28;20017;-61
2023/07/03 01:25:19;;;;;;;22.00;10.85;;;16.70;56.60;;;;;;5033308;28;20528;-60
2023/07/03 01:27:49;;;;;;;24.60;11.57;;;16.60;56.40;;;;;;5033568;28;20033;-60
2023/07/03 01:30:18;;;;;;;21.63;10.77;;;16.60;57.00;;;;;;5036268;28;20025;-61
2023/07/03 01:32:47;;;;;;;21.27;11.65;;;16.60;56.60;;;;;;5031394;28;20040;-61
2023/07/03 01:35:15;;;;;;;23.42;10.65;;;16.70;56.80;;;;;;5036688;28;20041;-61
2023/07/03 01:37:44;;;;;;;19.75;11.60;;;16.70;56.80;;;;;;5034841;28;20025;-59
2023/07/03 01:40:12;;;;;;;19.55;10.88;;;16.70;57.00;;;;;;5031297;28;20116;-59
2023/07/03 01:42:40;;;;;;;18.10;11.18;;;16.70;56.90;;;;;;5034437;28;20029;-60
2023/07/03 01:45:07;;;;;;;19.45;11.23;;;16.70;56.90;;;;;;5040189;28;20032;-61
2023/07/03 01:47:33;;;;;;;17.58;11.15;;;16.70;57.00;;;;;;5037575;28;20021;-62
2023/07/03 01:49:58;;;;;;;25.65;11.38;;;16.70;57.00;;;;;;5038176;28;20040;-61
2023/07/03 01:52:35;;;;;;;19.05;11.50;;;16.70;56.90;;;;;;5030427;28;20026;-61
2023/07/03 01:55:05;;;;;;;23.13;11.55;;;16.70;57.40;;;;;;5036637;28;20041;-61
2023/07/03 01:57:49;;;;;;;18.60;10.98;;;16.70;57.10;;;;;;5035405;28;20014;-60
2023/07/03 02:00:27;;;;;;;21.60;10.83;;;16.80;57.70;;;;;;5038343;28;20030;-59
2023/07/03 02:02:57;;;;;;;21.35;10.23;;;16.80;57.60;;;;;;5034601;28;20025;-60
2023/07/03 02:05:27;;;;;;;20.48;10.60;;;16.80;57.10;;;;;;5037356;28;20029;-61
2023/07/03 02:07:59;;;;;;;21.77;11.43;;;16.90;57.10;;;;;;5034550;28;20017;-59
2023/07/03 02:10:25;;;;;;;18.83;10.75;;;16.90;57.10;;;;;;5037333;28;20018;-60
2023/07/03 02:12:51;;;;;;;19.92;10.55;;;16.90;56.90;;;;;;5032142;28;20033;-60
2023/07/03 02:15:17;;;;;;;22.77;11.48;;;16.90;56.80;;;;;;5040227;28;20124;-60
2023/07/03 02:17:43;;;;;;;20.15;11.32;;;16.90;56.90;;;;;;5039106;28;20025;-61
2023/07/03 02:20:14;;;;;;;22.58;11.15;;;16.90;56.90;;;;;;5037996;28;20040;-61
2023/07/03 02:22:41;;;;;;;22.42;11.10;;;16.90;57.00;;;;;;5034020;28;20769;-60
2023/07/03 02:25:07;;;;;;;17.25;10.43;;;17.00;57.10;;;;;;5033479;28;20050;-61
2023/07/03 02:27:33;;;;;;;19.50;10.75;;;17.00;57.10;;;;;;5017548;28;20034;-61
2023/07/03 02:29:58;;;;;;;20.63;11.68;;;17.00;57.10;;;;;;5022019;28;20041;-60
2023/07/03 02:32:33;;;;;;;22.27;10.73;;;17.00;57.00;;;;;;5037643;28;20025;-60
2023/07/03 02:34:59;;;;;;;22.95;11.85;;;17.00;57.40;;;;;;5033941;28;20045;-59
2023/07/03 02:37:24;;;;;;;19.92;11.32;;;17.00;57.00;;;;;;5023083;28;20049;-61
2023/07/03 02:39:50;;;;;;;19.90;11.20;;;17.00;57.00;;;;;;5039318;28;20061;-61
2023/07/03 02:42:15;;;;;;;23.15;11.85;;;17.00;57.00;;;;;;5036425;28;20064;-59
2023/07/03 02:44:41;;;;;;;22.52;11.88;;;17.00;57.00;;;;;;5024501;28;20536;-60
2023/07/03 02:47:07;;;;;;;21.70;11.00;;;17.00;57.00;;;;;;5027398;28;20040;-60
2023/07/03 02:49:32;;;;;;;19.98;11.32;;;17.00;57.00;;;;;;5028575;28;20029;-60
2023/07/03 02:51:58;;;;;;;21.35;11.73;;;17.00;57.10;;;;;;5042297;28;20045;-60
2023/07/03 02:54:24;;;;;;;22.10;11.38;;;17.00;57.10;;;;;;5036240;28;20049;-60
2023/07/03 02:56:49;;;;;;;18.95;11.25;;;17.00;57.30;;;;;;5036545;28;20033;-61
2023/07/03 02:59:15;;;;;;;24.70;11.93;;;17.00;57.30;;;;;;5032785;28;20032;-61
2023/07/03 03:01:41;;;;;;;22.90;11.85;;;17.00;57.30;;;;;;5038584;28;20025;-61
2023/07/03 03:04:06;;;;;;;20.15;11.18;;;17.00;57.40;;;;;;5019237;28;20025;-61
2023/07/03 03:06:33;;;;;;;21.08;11.63;;;17.00;57.40;;;;;;5036002;28;20445;-61
2023/07/03 03:08:58;;;;;;;21.98;11.88;;;17.10;57.50;;;;;;5031987;28;20026;-61
2023/07/03 03:11:24;;;;;;;20.75;11.45;;;17.10;57.50;;;;;;5033366;28;20053;-61
2023/07/03 03:13:50;;;;;;;19.63;11.70;;;17.10;57.50;;;;;;5036969;28;20038;-61
2023/07/03 03:16:16;;;;;;;19.83;11.40;;;17.10;57.60;;;;;;5033021;28;20025;-62
2023/07/03 03:18:41;;;;;;;20.98;11.90;;;17.10;57.50;;;;;;5036851;28;20029;-61
2023/07/03 03:21:07;;;;;;;20.80;11.40;;;17.10;57.40;;;;;;5031866;28;20025;-61
2023/07/03 03:23:33;;;;;;;20.60;12.02;;;17.10;57.40;;;;;;5036920;28;20031;-60
2023/07/03 03:25:59;;;;;;;20.58;10.18;;;17.10;57.40;;;;;;5034629;28;20072;-60
2023/07/03 03:28:24;;;;;;;21.15;11.52;;;17.10;57.40;;;;;;5033228;28;20026;-60
2023/07/03 03:30:50;;;;;;;22.13;12.63;;;17.10;57.50;;;;;;5038254;28;20117;-59
2023/07/03 03:33:16;;;;;;;22.17;12.40;;;17.20;57.60;;;;;;5039575;28;20022;-61
2023/07/03 03:35:41;;;;;;;23.80;12.60;;;17.20;57.80;;;;;;5035232;28;20037;-60
2023/07/03 03:38:07;;;;;;;20.73;11.57;;;17.20;57.90;;;;;;5037228;28;20034;-60
2023/07/03 03:40:33;;;;;;;23.15;12.40;;;17.20;57.80;;;;;;5041518;28;20056;-60
2023/07/03 03:42:58;;;;;;;21.83;12.13;;;17.20;57.90;;;;;;5039893;28;20572;-60
2023/07/03 03:45:24;;;;;;;18.92;11.43;;;17.20;58.10;;;;;;5029884;28;20360;-62
2023/07/03 03:47:51;;;;;;;17.70;10.32;;;17.20;57.90;;;;;;5034617;28;20025;-61
2023/07/03 03:50:16;;;;;;;21.83;11.57;;;17.20;57.90;;;;;;5039940;28;20029;-60
2023/07/03 03:52:42;;;;;;;22.58;12.38;;;17.20;58.00;;;;;;5036741;28;20021;-61
2023/07/03 03:55:08;;;;;;;23.45;11.60;;;17.30;58.00;;;;;;5031931;28;20046;-61
2023/07/03 03:57:34;;;;;;;22.50;12.38;;;17.30;58.00;;;;;;5039489;28;20081;-61
2023/07/03 03:59:59;;;;;;;22.13;11.95;;;17.30;58.00;;;;;;5038087;28;20036;-59
2023/07/03 04:02:25;;;;;;;25.92;11.75;;;17.30;58.00;;;;;;5036623;28;20067;-61
2023/07/03 04:04:50;;;;;;;17.73;10.90;;;17.40;58.00;;;;;;5034711;28;20029;-60
2023/07/03 04:07:16;;;;;;;20.70;11.40;;;17.40;58.60;;;;;;5034694;28;20021;-60
2023/07/03 04:09:42;;;;;;;19.65;12.10;;;17.40;58.10;;;;;;5034443;28;20018;-59
2023/07/03 04:12:07;;;;;;;20.48;11.20;;;17.50;58.20;;;;;;5042453;28;20025;-61
2023/07/03 04:14:33;;;;;;;15.88;10.93;;;17.50;58.30;;;;;;5040862;28;20469;-61
2023/07/03 04:17:00;;;;;;;22.10;11.43;;;17.50;58.30;;;;;;5039286;28;20029;-60
2023/07/03 04:19:28;;;;;;;22.40;11.82;;;17.50;58.30;;;;;;5037102;28;20036;-61
2023/07/03 04:21:53;;;;;;;17.95;11.48;;;17.60;58.50;;;;;;5039232;28;20025;-61
2023/07/03 04:24:19;;;;;;;22.65;11.60;;;17.60;58.40;;;;;;5021094;28;20117;-61
2023/07/03 04:26:45;;;;;;;23.40;12.52;;;17.60;58.40;;;;;;5040468;28;20056;-61
2023/07/03 04:29:12;;;;;;;21.33;10.93;;;17.70;58.40;;;;;;5032317;28;20053;-60
2023/07/03 04:31:39;;;;;;;20.50;10.73;;;17.70;58.40;;;;;;5020117;28;20056;-60
2023/07/03 04:34:05;;;;;;;23.55;10.95;;;17.80;58.50;;;;;;5035041;28;20041;-60
2023/07/03 04:36:31;;;;;;;23.25;11.20;;;17.80;58.50;;;;;;5034631;28;20495;-60
2023/07/03 04:38:57;;;;;;;24.55;11.48;;;17.90;58.40;;;;;;5037674;28;20021;-60
2023/07/03 04:41:27;;;;;;;20.10;11.70;;;17.90;58.40;;;;;;5034244;28;20029;-60
2023/07/03 04:43:56;;;;;;;26.02;11.10;;;17.90;58.50;;;;;;5037545;28;20028;-60
2023/07/03 04:46:25;;;;;;;21.05;11.02;;;18.00;58.40;;;;;;5034426;28;20060;-60
2023/07/03 04:48:52;;;;;;;22.15;11.77;;;18.00;58.40;;;;;;5035558;28;20064;-61
2023/07/03 04:51:17;;;;;;;23.33;11.93;;;18.10;58.30;;;;;;5033642;28;20025;-60
2023/07/03 04:53:43;;;;;;;22.45;11.48;;;18.10;58.30;;;;;;5037522;28;20037;-60
2023/07/03 04:56:10;;;;;;;27.27;12.02;;;18.20;58.30;;;;;;5032754;28;20026;-60
2023/07/03 04:58:37;;;;;;;21.23;11.85;;;18.20;58.30;;;;;;5037300;28;20018;-61
2023/07/03 05:01:04;;;;;;;23.02;11.73;;;18.20;58.20;;;;;;5036904;28;20125;-60
2023/07/03 05:03:32;;;;;;;23.10;11.25;;;18.30;58.10;;;;;;5037092;28;20021;-60
2023/07/03 05:05:58;;;;;;;18.88;11.02;;;18.30;58.00;;;;;;5034056;28;20030;-60
2023/07/03 05:08:24;;;;;;;22.95;11.55;;;18.30;58.00;;;;;;5039990;28;20040;-60
2023/07/03 05:10:51;;;;;;;20.77;11.65;;;18.40;58.20;;;;;;5039647;28;20025;-60
2023/07/03 05:13:16;;;;;;;23.13;11.82;;;18.50;58.30;;;;;;5037522;28;20048;-60
2023/07/03 05:15:42;;;;;;;18.38;10.20;;;18.50;58.40;;;;;;5035982;28;20029;-60
2023/07/03 05:18:08;;;;;;;21.95;11.18;;;18.60;58.30;;;;;;5036506;28;20060;-61
2023/07/03 05:20:33;;;;;;;20.63;12.10;;;18.60;58.20;;;;;;5032647;28;20033;-60
2023/07/03 05:22:59;;;;;;;19.27;10.25;;;18.70;58.00;;;;;;5036989;28;20143;-59
2023/07/03 05:25:26;;;;;;;19.85;11.40;;;18.80;58.20;;;;;;5039847;28;20049;-60
2023/07/03 05:27:51;;;;;;;27.52;11.10;;;18.90;58.40;;;;;;5028641;28;20028;-60
2023/07/03 05:30:17;;;;;;;20.95;11.23;;;19.00;58.40;;;;;;5031451;28;20025;-61
2023/07/03 05:32:43;;;;;;;21.15;11.20;;;19.00;58.30;;;;;;5040476;28;20288;-59
2023/07/03 05:35:10;;;;;;;19.80;10.82;;;19.10;58.80;;;;;;5032139;28;20041;-60
2023/07/03 05:37:36;;;;;;;26.35;11.48;;;19.20;58.10;;;;;;5028405;28;20049;-60
2023/07/03 05:40:05;;;;;;;23.52;10.48;;;19.30;58.00;;;;;;5032840;28;20030;-60
2023/07/03 05:42:30;;;;;;;22.58;11.40;;;19.40;57.60;;;;;;5036829;28;20022;-60
2023/07/03 05:44:56;;;;;;;19.98;9.80;;;19.40;57.20;;;;;;5029648;28;20044;-60
2023/07/03 05:47:22;;;;;;;18.45;9.65;;;19.50;56.80;;;;;;5029119;28;20021;-60
2023/07/03 05:49:49;;;;;;;23.63;9.63;;;19.60;56.40;;;;;;5031634;28;20025;-60
2023/07/03 05:52:15;;;;;;;23.83;9.63;;;19.70;56.30;;;;;;5037530;28;20037;-60
2023/07/03 05:54:41;;;;;;;22.67;9.43;;;19.70;55.80;;;;;;5031253;28;20029;-60
2023/07/03 05:57:09;;;;;;;24.88;10.40;;;19.80;55.60;;;;;;5034528;28;20053;-59
2023/07/03 05:59:36;;;;;;;21.25;10.10;;;19.90;55.40;;;;;;5035494;28;20026;-60
2023/07/03 06:02:04;;;;;;;23.25;9.63;;;20.10;55.30;;;;;;5037770;28;20076;-61
2023/07/03 06:04:30;;;;;;;18.65;8.63;;;20.20;55.00;;;;;;5038875;28;20029;-60
2023/07/03 06:06:56;;;;;;;19.02;9.05;;;20.30;54.90;;;;;;5042417;28;20025;-60
2023/07/03 06:09:26;;;;;;;17.52;9.10;;;20.50;54.70;;;;;;5031034;28;20022;-60
2023/07/03 06:11:52;;;;;;;23.17;8.90;;;20.70;54.30;;;;;;5037025;28;20029;-60
2023/07/03 06:14:19;;;;;;;16.40;7.78;;;20.80;53.70;;;;;;5037992;28;20049;-60
2023/07/03 06:16:45;;;;;;;14.38;7.75;;;21.00;53.70;;;;;;5040310;28;20029;-60
2023/07/03 06:19:12;;;;;;;18.73;8.75;;;21.10;53.50;;;;;;5035211;28;20025;-60
2023/07/03 06:21:39;;;;;;;18.73;7.90;;;21.30;52.60;;;;;;5037669;28;20042;-60
2023/07/03 06:24:05;;;;;;;16.15;8.15;;;21.30;52.30;;;;;;5035558;28;20116;-60
2023/07/03 06:26:33;;;;;;;14.45;7.53;;;21.50;51.90;;;;;;5037728;28;20099;-60
2023/07/03 06:28:59;;;;;;;19.27;8.00;;;21.60;51.60;;;;;;5030429;28;20029;-61
2023/07/03 06:31:25;;;;;;;15.07;7.68;;;21.70;51.00;;;;;;5031501;28;20064;-60
2023/07/03 06:33:50;;;;;;;15.38;7.38;;;21.80;50.70;;;;;;5031974;28;20033;-63
2023/07/03 06:36:21;;;;;;;18.60;7.97;;;21.80;50.60;;;;;;5036514;28;20018;-62
2023/07/03 06:38:51;;;;;;;16.52;7.82;;;22.00;50.10;;;;;;5026866;28;20028;-61
2023/07/03 06:41:16;;;;;;;16.10;8.05;;;22.10;49.80;;;;;;5032698;28;20039;-59
2023/07/03 06:43:42;;;;;;;16.02;7.93;;;22.20;50.00;;;;;;5032572;28;20049;-63
2023/07/03 06:46:10;;;;;;;16.23;8.18;;;22.30;49.80;;;;;;5032058;28;20034;-61
2023/07/03 06:48:36;;;;;;;19.73;9.00;;;22.40;49.90;;;;;;5030346;28;20089;-61
2023/07/03 06:51:07;;;;;;;26.90;9.63;;;22.50;49.80;;;;;;5028935;28;20033;-61
2023/07/03 06:53:33;;;;;;;15.65;7.40;;;22.50;49.60;;;;;;5033073;28;20037;-61
2023/07/03 06:56:01;;;;;;;16.02;7.07;;;22.60;49.20;;;;;;5033741;28;20033;-62
2023/07/03 06:58:28;;;;;;;16.50;7.57;;;22.70;49.10;;;;;;5038432;28;20022;-62
2023/07/03 07:00:54;;;;;;;16.30;7.72;;;22.80;48.50;;;;;;5037670;28;20700;-62
2023/07/03 07:03:20;;;;;;;17.83;7.50;;;22.80;48.50;;;;;;5043367;28;20033;-62
2023/07/03 07:05:46;;;;;;;14.20;6.97;;;22.90;48.50;;;;;;5035528;28;20057;-61
2023/07/03 07:08:16;;;;;;;18.15;7.07;;;22.90;48.00;;;;;;5034285;28;20022;-62
2023/07/03 07:10:43;;;;;;;15.25;7.50;;;23.00;48.00;;;;;;5033629;28;20037;-61
2023/07/03 07:13:09;;;;;;;14.98;7.32;;;23.10;47.90;;;;;;5040941;28;20060;-62
2023/07/03 07:15:37;;;;;;;14.30;7.13;;;23.20;47.80;;;;;;5028434;28;20037;-62
2023/07/03 07:18:03;;;;;;;20.00;7.72;;;23.30;47.20;;;;;;5038729;28;20029;-62
2023/07/03 07:20:28;;;;;;;19.13;7.45;;;23.30;46.90;;;;;;5038032;28;20022;-61
2023/07/03 07:22:54;;;;;;;18.98;7.60;;;23.40;46.30;;;;;;5032899;28;20030;-61
2023/07/03 07:25:19;;;;;;;18.00;7.72;;;23.50;46.70;;;;;;5039372;28;20041;-61
2023/07/03 07:27:45;;;;;;;15.10;7.57;;;23.60;46.30;;;;;;5035273;28;20030;-61
2023/07/03 07:30:11;;;;;;;17.42;7.93;;;23.70;46.00;;;;;;5029738;28;20108;-61
2023/07/03 07:32:37;;;;;;;12.80;6.78;;;23.70;45.60;;;;;;5034071;28;20024;-60
2023/07/03 07:35:07;;;;;;;15.18;6.25;;;23.70;45.00;;;;;;5040232;28;20041;-61
2023/07/03 07:37:32;;;;;;;23.08;7.65;;;23.80;45.10;;;;;;5041375;28;20637;-60
2023/07/03 07:39:58;;;;;;;13.15;6.20;;;23.80;43.40;;;;;;5021998;28;20094;-62
2023/07/03 07:42:23;;;;;;;14.27;6.85;;;23.80;43.70;;;;;;5035785;28;20026;-61
2023/07/03 07:44:49;;;;;;;14.07;6.47;;;23.70;43.90;;;;;;5037093;28;20029;-61
2023/07/03 07:47:15;;;;;;;19.08;7.25;;;23.70;44.40;;;;;;5041353;28;20029;-60
2023/07/03 07:49:42;;;;;;;17.23;6.90;;;23.80;43.90;;;;;;5002287;28;20029;-61
2023/07/03 07:52:08;;;;;;;16.67;7.43;;;23.80;43.70;;;;;;5041639;28;20128;-62
2023/07/03 07:54:33;;;;;;;13.32;6.38;;;23.80;44.00;;;;;;5041276;28;20072;-61
2023/07/03 07:56:59;;;;;;;13.55;6.38;;;23.80;43.70;;;;;;5035434;28;20065;-61
2023/07/03 07:59:25;;;;;;;12.43;6.05;;;23.90;43.80;;;;;;5041385;28;20071;-60
2023/07/03 08:01:52;;;;;;;15.15;6.65;;;24.00;43.80;;;;;;5040779;28;20040;-62
2023/07/03 08:04:18;;;;;;;18.42;6.72;;;24.10;43.40;;;;;;5040604;28;20454;-61
2023/07/03 08:06:43;;;;;;;13.50;6.20;;;24.20;42.80;;;;;;5036506;28;20033;-61
2023/07/03 08:09:09;;;;;;;14.00;6.18;;;24.20;42.90;;;;;;5043677;28;20029;-62
2023/07/03 08:11:35;;;;;;;12.75;6.38;;;24.30;42.20;;;;;;5039367;28;20049;-62
2023/07/03 08:14:00;;;;;;;14.90;6.10;;;24.40;42.20;;;;;;5037548;28;20041;-61
2023/07/03 08:16:26;;;;;;;13.73;6.18;;;24.50;40.80;;;;;;5037326;28;20017;-60
2023/07/03 08:18:52;;;;;;;11.50;5.15;;;24.50;40.00;;;;;;5038096;28;20029;-60
2023/07/03 08:21:17;;;;;;;19.33;6.10;;;24.40;39.70;;;;;;5036286;28;20034;-60
2023/07/03 08:23:43;;;;;;;14.70;6.50;;;24.50;39.50;;;;;;5038344;28;20038;-60
2023/07/03 08:26:18;;;;;;;12.27;5.57;;;24.40;39.60;;;;;;5040968;28;20046;-61
2023/07/03 08:28:43;;;;;;;13.43;5.85;;;24.30;39.50;;;;;;5038415;28;20029;-61
2023/07/03 08:31:09;;;;;;;16.83;6.15;;;24.30;40.20;;;;;;5037824;28;20072;-60
2023/07/03 08:33:35;;;;;;;18.38;6.00;;;24.30;39.80;;;;;;5037458;28;20030;-61
2023/07/03 08:36:00;;;;;;;13.43;5.63;;;24.40;40.10;;;;;;5040436;28;20026;-60
2023/07/03 08:38:26;;;;;;;13.43;5.03;;;24.40;39.70;;;;;;5043159;28;20056;-61
2023/07/03 08:41:00;;;;;;;13.73;5.63;;;24.50;39.20;;;;;;5038193;28;20089;-62
2023/07/03 08:43:42;;;;;;;16.80;5.50;;;24.60;38.30;;;;;;5036259;28;20481;-60
2023/07/03 08:46:12;;;;;;;13.55;5.70;;;24.60;39.20;;;;;;5040474;28;20030;-62
2023/07/03 08:48:40;;;;;;;16.00;5.90;;;24.60;38.20;;;;;;5029736;28;20056;-61
2023/07/03 08:51:09;;;;;;;12.48;5.20;;;24.70;38.80;;;;;;5036736;28;20026;-61
2023/07/03 08:53:39;;;;;;;13.18;5.53;;;24.70;38.70;;;;;;5038901;28;20076;-60
2023/07/03 08:56:16;;;;;;;13.48;5.60;;;24.80;38.40;;;;;;5034744;28;20097;-61
2023/07/03 08:58:43;;;;;;;14.98;5.80;;;24.80;37.60;;;;;;5042703;28;20029;-61
2023/07/03 09:01:17;;;;;;;13.93;5.10;;;24.90;38.20;;;;;;5044598;28;20025;-61
2023/07/03 09:04:08;;;;;;;17.80;6.05;;;24.90;38.20;;;;;;5041653;28;20037;-61
2023/07/03 09:07:03;;;;;;;13.43;5.88;;;25.00;37.70;;;;;;5038544;28;20093;-62
2023/07/03 09:09:29;;;;;;;14.05;5.72;;;25.00;37.30;;;;;;5037269;28;20392;-61
2023/07/03 09:12:07;;;;;;;10.18;5.50;;;25.10;37.90;;;;;;5018905;28;20030;-61
2023/07/03 09:14:42;;;;;;;25.75;6.70;;;25.10;37.20;;;;;;5030932;28;20085;-63
2023/07/03 09:17:09;;;;;;;13.18;5.85;;;25.20;36.10;;;;;;5034861;28;20116;-63
2023/07/03 09:19:37;;;;;;;12.82;5.35;;;25.20;36.50;;;;;;5033373;28;20033;-62
2023/07/03 09:22:07;;;;;;;9.30;4.65;;;25.30;36.80;;;;;;5041157;28;20022;-61
2023/07/03 09:24:43;;;;;;;13.25;5.25;;;25.30;36.40;;;;;;5035356;28;20021;-61
2023/07/03 09:27:15;;;;;;;15.07;5.60;;;25.40;35.80;;;;;;5026542;28;20026;-60
2023/07/03 09:29:42;;;;;;;15.48;5.68;;;25.40;35.50;;;;;;5036602;28;20033;-62
2023/07/03 09:32:22;;;;;;;16.20;5.63;;;25.40;35.90;;;;;;5034407;28;20025;-62
2023/07/03 09:35:12;;;;;;;10.85;5.45;;;25.40;36.30;;;;;;5031691;28;20795;-61
2023/07/03 09:37:39;;;;;;;12.15;6.47;;;25.40;36.00;;;;;;5043626;28;20111;-62
2023/07/03 09:40:09;;;;;;;19.05;6.38;;;25.40;35.50;;;;;;5040153;28;20033;-63
2023/07/03 09:42:36;;;;;;;15.70;6.28;;;25.40;35.70;;;;;;5017258;28;20029;-61
2023/07/03 09:45:12;;;;;;;13.05;6.03;;;25.40;35.80;;;;;;5042389;28;20044;-61
2023/07/03 09:47:37;;;;;;;14.00;5.93;;;25.30;36.00;;;;;;5039500;28;20033;-61
2023/07/03 09:50:08;;;;;;;15.00;6.05;;;25.30;37.20;;;;;;5033322;28;20029;-61
2023/07/03 09:52:41;;;;;;;11.95;5.70;;;25.30;37.90;;;;;;5032807;28;20037;-59
2023/07/03 09:55:07;;;;;;;13.43;6.35;;;25.40;37.90;;;;;;5025479;28;20149;-61
2023/07/03 09:57:35;;;;;;;16.80;6.00;;;25.40;37.50;;;;;;5024042;28;20504;-62
2023/07/03 10:00:27;;;;;;;13.98;6.60;;;25.40;37.40;;;;;;5028020;28;20037;-62
2023/07/03 10:02:55;;;;;;;17.63;6.45;;;25.40;37.60;;;;;;5033606;28;20037;-62
2023/07/03 10:05:30;;;;;;;16.83;5.95;;;25.40;37.60;;;;;;5034761;28;20074;-61
2023/07/03 10:08:01;;;;;;;14.10;5.95;;;25.40;37.70;;;;;;5027029;28;20021;-61
2023/07/03 10:10:29;;;;;;;17.15;6.88;;;25.50;37.50;;;;;;5033182;28;20026;-61
2023/07/03 10:12:55;;;;;;;17.48;6.28;;;25.60;37.60;;;;;;5034803;28;20026;-61
2023/07/03 10:15:25;;;;;;;15.80;6.07;;;25.60;37.10;;;;;;5038994;28;20072;-61
2023/07/03 10:17:56;;;;;;;13.23;6.43;;;25.60;36.90;;;;;;5043025;28;20036;-61
2023/07/03 10:20:43;;;;;;;13.38;6.20;;;25.70;37.30;;;;;;5037723;28;20025;-61
2023/07/03 10:23:17;;;;;;;11.30;5.40;;;25.70;37.10;;;;;;5043089;28;21200;-60
2023/07/03 10:25:48;;;;;;;13.52;5.68;;;25.80;36.80;;;;;;5039414;28;20042;-61
2023/07/03 10:28:21;;;;;;;12.55;5.90;;;25.80;37.00;;;;;;5039428;28;20059;-62
2023/07/03 10:30:50;;;;;;;14.50;5.93;;;25.80;36.30;;;;;;5027238;28;20052;-62
2023/07/03 10:33:21;;;;;;;15.20;5.40;;;25.90;36.50;;;;;;5038443;28;20037;-61
2023/07/03 10:35:50;;;;;;;12.15;5.40;;;26.00;36.70;;;;;;5037515;28;20033;-60
2023/07/03 10:38:30;;;;;;;13.20;5.78;;;26.00;36.30;;;;;;5040365;28;20025;-63
2023/07/03 10:40:58;;;;;;;14.50;6.32;;;26.00;36.10;;;;;;5037287;28;20026;-62
2023/07/03 10:43:28;;;;;;;15.18;5.68;;;26.00;36.40;;;;;;5038285;28;20403;-65
2023/07/03 10:45:55;;;;;;;17.65;6.63;;;25.90;36.40;;;;;;5035983;28;20030;-62
2023/07/03 10:48:29;;;;;;;13.85;6.15;;;25.90;36.10;;;;;;5047551;28;20033;-62
2023/07/03 10:50:54;;;;;;;;;;;25.80;36.10;;;;;;5043097;28;20422;-62
2023/07/03 10:53:44;;;;;;;9.85;5.50;;;25.80;37.30;;;;;;5039675;28;19916;-63
2023/07/03 10:56:39;;;;;;;12.90;5.75;;;25.80;35.80;;;;;;5042543;28;20045;-61
2023/07/03 10:59:17;;;;;;;13.63;6.15;;;25.80;36.60;;;;;;5047558;28;20029;-62
2023/07/03 11:02:12;;;;;;;15.85;7.07;;;25.80;37.30;;;;;;5043360;28;20029;-64
2023/07/03 11:05:15;;;;;;;19.90;6.20;;;25.80;38.10;;;;;;5042591;28;20037;-61
2023/07/03 11:08:00;;;;;;;18.63;6.22;;;25.90;37.70;;;;;;5037840;28;20034;-64
2023/07/03 11:10:31;;;;;;;12.15;5.85;;;25.90;37.50;;;;;;5037366;28;20049;-63
2023/07/03 11:13:20;;;;;;;14.50;6.72;;;26.00;37.30;;;;;;5025253;28;20045;-63
2023/07/03 11:15:59;;;;;;;15.52;6.35;;;26.10;36.80;;;;;;5037726;28;20069;-62
2023/07/03 11:18:31;;;;;;;16.10;6.03;;;26.20;36.30;;;;;;5035778;28;20038;-62
2023/07/03 11:21:08;;;;;;;13.65;5.93;;;26.10;36.50;;;;;;5042446;28;20084;-63
2023/07/03 11:23:55;;;;;;;12.45;5.93;;;26.10;36.80;;;;;;5042367;28;20034;-62
2023/07/03 11:26:45;;;;;;;14.32;6.20;;;26.20;36.40;;;;;;5040091;28;20050;-63
2023/07/03 11:29:11;;;;;;;13.15;5.38;;;26.30;36.80;;;;;;5042116;28;20059;-61
2023/07/03 11:31:41;;;;;;;13.00;5.70;;;26.40;37.20;;;;;;5043102;28;20048;-63
2023/07/03 11:34:11;;;;;;;18.45;6.15;;;26.50;36.90;;;;;;5043950;28;20041;-62
2023/07/03 11:36:48;;;;;;;14.50;6.82;;;26.60;36.90;;;;;;5039152;28;20033;-61
2023/07/03 11:39:24;;;;;;;18.27;6.45;;;26.70;36.30;;;;;;5035240;28;20025;-62
2023/07/03 11:42:02;;;;;;;15.50;6.18;;;26.60;36.60;;;;;;5039583;28;20032;-63
2023/07/03 11:44:27;;;;;;;13.82;5.90;;;26.70;36.60;;;;;;5042306;28;20049;-63
2023/07/03 11:46:58;;;;;;;13.40;6.00;;;26.70;36.90;;;;;;5044692;28;20037;-62
2023/07/03 11:49:29;;;;;;;19.65;6.32;;;26.70;37.00;;;;;;5051279;28;20033;-64
2023/07/03 11:52:01;;;;;;;12.93;6.28;;;26.70;37.10;;;;;;5043233;28;20039;-63
2023/07/03 11:54:29;;;;;;;11.43;5.53;;;26.70;36.70;;;;;;5046743;28;20044;-64
2023/07/03 11:56:59;;;;;;;14.05;5.57;;;26.70;36.00;;;;;;5025595;28;20044;-63
2023/07/03 11:59:31;;;;;;;14.70;5.47;;;26.70;35.40;;;;;;5042747;28;20028;-64
2023/07/03 12:02:15;;;;;;;14.25;5.20;;;26.70;35.00;;;;;;5035784;28;20085;-63
2023/07/03 12:04:46;;;;;;;10.27;5.38;;;26.70;35.00;;;;;;5037144;28;20033;-63
2023/07/03 12:07:21;;;;;;;15.63;6.80;;;26.60;35.30;;;;;;5040691;28;20488;-63
2023/07/03 12:09:51;;;;;;;13.68;5.95;;;26.60;35.70;;;;;;5046721;28;20032;-63
2023/07/03 12:12:24;;;;;;;11.93;5.90;;;26.60;36.10;;;;;;5039117;28;20036;-63
2023/07/03 12:14:54;;;;;;;11.32;5.63;;;26.50;36.70;;;;;;5034862;28;20026;-61
2023/07/03 12:17:32;;;;;;;19.85;6.93;;;26.50;36.60;;;;;;5019618;28;20107;-62
2023/07/03 12:20:16;;;;;;;13.43;6.55;;;26.50;36.40;;;;;;5033351;28;20032;-63
2023/07/03 12:22:46;;;;;;;;;;;26.50;36.70;;;;;;5039523;28;20049;-64
2023/07/03 12:25:21;;;;;;;14.30;6.35;;;26.50;37.20;;;;;;5049610;28;19917;-62
2023/07/03 12:27:48;;;;;;;15.57;5.97;;;26.50;36.50;;;;;;5035166;28;20026;-62
2023/07/03 12:30:26;;;;;;;18.75;6.82;;;26.50;36.70;;;;;;5038989;28;20036;-62
2023/07/03 12:32:52;;;;;;;11.88;5.65;;;26.50;36.40;;;;;;5049557;28;20108;-63
2023/07/03 12:35:24;;;;;;;13.63;6.40;;;26.50;36.80;;;;;;5040327;28;20037;-62
2023/07/03 12:37:53;;;;;;;16.75;5.22;;;26.60;37.00;;;;;;5040074;28;20056;-63
2023/07/03 12:40:21;;;;;;;12.32;6.05;;;26.70;37.20;;;;;;5015464;28;20026;-63
2023/07/03 12:42:52;;;;;;;16.02;5.88;;;26.80;37.20;;;;;;5037144;28;20055;-62